createdAt,value
2024-02-27T00:01:30.450Z,11.93
2024-02-27T00:04:06.186Z,11.03
2024-02-27T00:06:39.630Z,11.73
2024-02-27T00:09:17.036Z,12.53
2024-02-27T00:11:55.399Z,15.27
2024-02-27T00:14:31.172Z,15.53
2024-02-27T00:17:04.457Z,12.33
2024-02-27T00:19:44.336Z,22.33
2024-02-27T00:22:20.369Z,11.70
2024-02-27T00:24:58.037Z,14.33
2024-02-27T00:27:36.636Z,16.57
2024-02-27T00:30:21.549Z,8.83
2024-02-27T00:32:52.227Z,11.50
2024-02-27T00:35:31.677Z,8.52
2024-02-27T00:38:10.709Z,11.33
2024-02-27T00:40:49.609Z,10.17
2024-02-27T00:43:34.094Z,8.00
2024-02-27T00:46:03.473Z,10.80
2024-02-27T00:48:32.969Z,11.10
2024-02-27T00:51:03.643Z,8.50
2024-02-27T00:53:40.760Z,10.50
2024-02-27T00:56:17.167Z,7.70
2024-02-27T00:58:52.409Z,11.93
2024-02-27T01:01:27.705Z,9.27
2024-02-27T01:04:05.472Z,6.60
2024-02-27T01:06:40.971Z,11.87
2024-02-27T01:09:14.658Z,8.03
2024-02-27T01:12:01.290Z,10.33
2024-02-27T01:14:35.652Z,15.37
2024-02-27T01:17:19.832Z,11.47
2024-02-27T01:19:56.844Z,19.53
2024-02-27T01:22:34.362Z,14.07
2024-02-27T01:25:08.340Z,15.20
2024-02-27T01:27:38.398Z,13.87
2024-02-27T01:30:23.466Z,10.93
2024-02-27T01:33:00.051Z,10.07
2024-02-27T01:35:41.774Z,11.97
2024-02-27T01:40:49.693Z,10.00
2024-02-27T01:43:29.008Z,10.33
2024-02-27T01:46:20.325Z,17.60
2024-02-27T01:49:02.386Z,9.85
2024-02-27T01:54:17.018Z,6.93
2024-02-27T01:56:55.246Z,11.60
2024-02-27T01:59:26.638Z,6.27
2024-02-27T02:01:57.338Z,10.90
2024-02-27T02:04:29.537Z,13.07
2024-02-27T02:07:09.003Z,9.80
2024-02-27T02:09:40.734Z,9.33
2024-02-27T02:12:19.399Z,12.88
2024-02-27T02:14:55.043Z,8.80
2024-02-27T02:17:28.990Z,9.67
2024-02-27T02:20:00.059Z,12.03
2024-02-27T02:22:35.674Z,12.77
2024-02-27T02:25:19.693Z,9.63
2024-02-27T02:27:53.388Z,13.37
2024-02-27T02:30:26.799Z,9.00
2024-02-27T02:33:01.214Z,9.70
2024-02-27T02:35:46.569Z,10.37
2024-02-27T02:38:20.786Z,10.17
2024-02-27T02:40:50.872Z,12.25
2024-02-27T02:43:28.770Z,9.03
2024-02-27T02:45:59.548Z,11.17
2024-02-27T02:48:42.537Z,12.97
2024-02-27T02:51:11.798Z,12.17
2024-02-27T02:53:40.408Z,11.77
2024-02-27T02:56:22.713Z,7.00
2024-02-27T02:59:01.050Z,7.23
2024-02-27T03:01:30.462Z,7.40
2024-02-27T03:04:06.226Z,11.68
2024-02-27T03:06:40.775Z,13.50
2024-02-27T03:09:10.863Z,9.90
2024-02-27T03:11:48.026Z,12.47
2024-02-27T03:14:21.186Z,12.70
2024-02-27T03:17:07.740Z,20.07
2024-02-27T03:19:43.615Z,15.87
2024-02-27T03:22:16.754Z,13.70
2024-02-27T03:24:53.021Z,15.67
2024-02-27T03:27:24.063Z,14.80
2024-02-27T03:30:03.723Z,17.30
2024-02-27T03:32:39.328Z,16.47
2024-02-27T03:35:14.080Z,20.73
2024-02-27T03:37:53.469Z,10.63
2024-02-27T03:40:26.692Z,11.47
2024-02-27T03:42:59.609Z,15.93
2024-02-27T03:45:30.798Z,12.10
2024-02-27T03:48:11.902Z,10.40
2024-02-27T03:50:51.931Z,7.60
2024-02-27T03:53:23.801Z,9.97
2024-02-27T03:55:57.523Z,13.33
2024-02-27T03:58:38.545Z,10.27
2024-02-27T04:01:07.648Z,13.23
2024-02-27T04:03:40.146Z,16.07
2024-02-27T04:06:18.627Z,18.80
2024-02-27T04:08:56.202Z,12.40
2024-02-27T04:11:28.706Z,11.47
2024-02-27T04:14:03.908Z,15.37
2024-02-27T04:16:38.487Z,9.23
2024-02-27T04:19:12.145Z,11.53
2024-02-27T04:21:56.237Z,10.10
2024-02-27T04:24:30.251Z,9.70
2024-02-27T04:27:07.800Z,9.67
2024-02-27T04:29:40.247Z,11.70
2024-02-27T04:32:10.973Z,10.20
2024-02-27T04:34:44.151Z,11.87
2024-02-27T04:37:12.743Z,11.77
2024-02-27T04:39:49.572Z,10.40
2024-02-27T04:42:28.114Z,11.30
2024-02-27T04:45:02.594Z,14.80
2024-02-27T04:47:34.616Z,12.93
2024-02-27T04:50:05.416Z,11.30
2024-02-27T04:52:36.557Z,20.73
2024-02-27T04:55:09.387Z,15.60
2024-02-27T04:57:45.389Z,17.03
2024-02-27T05:00:23.651Z,15.20
2024-02-27T05:03:01.485Z,28.53
2024-02-27T05:05:30.206Z,18.37
2024-02-27T05:08:07.768Z,14.37
2024-02-27T05:10:37.859Z,18.33
2024-02-27T05:13:19.137Z,11.83
2024-02-27T05:15:51.612Z,8.77
2024-02-27T05:18:28.850Z,10.07
2024-02-27T05:21:00.239Z,11.50
2024-02-27T05:23:32.316Z,16.33
2024-02-27T05:26:07.781Z,12.63
2024-02-27T05:28:41.089Z,15.13
2024-02-27T05:31:32.698Z,15.83
2024-02-27T05:34:04.908Z,15.80
2024-02-27T05:36:41.911Z,16.57
2024-02-27T05:39:12.685Z,10.97
2024-02-27T05:41:45.226Z,11.47
2024-02-27T05:44:18.223Z,15.20
2024-02-27T05:46:51.272Z,12.47
2024-02-27T05:49:31.253Z,21.80
2024-02-27T05:52:09.595Z,13.77
2024-02-27T05:54:41.903Z,14.60
2024-02-27T05:57:23.265Z,11.97
2024-02-27T06:00:00.548Z,13.02
2024-02-27T06:02:31.627Z,17.33
2024-02-27T06:05:06.321Z,23.42
2024-02-27T06:07:39.575Z,11.30
2024-02-27T06:10:13.914Z,11.33
2024-02-27T06:12:46.072Z,22.83
2024-02-27T06:15:23.893Z,18.67
2024-02-27T06:18:02.006Z,32.00
2024-02-27T06:20:53.331Z,28.17
2024-02-27T06:23:27.892Z,19.10
2024-02-27T06:26:07.915Z,21.43
2024-02-27T06:28:45.092Z,22.70
2024-02-27T06:31:20.261Z,21.77
2024-02-27T06:34:02.477Z,18.90
2024-02-27T06:36:43.363Z,17.57
2024-02-27T06:39:17.749Z,22.47
2024-02-27T06:41:58.594Z,20.80
2024-02-27T06:44:37.475Z,24.85
2024-02-27T06:47:14.664Z,19.53
2024-02-27T06:49:47.828Z,20.80
2024-02-27T06:52:21.845Z,17.63
2024-02-27T06:54:55.228Z,25.20
2024-02-27T06:57:28.509Z,18.70
2024-02-27T07:02:38.713Z,15.63
2024-02-27T07:05:17.090Z,19.83
2024-02-27T07:07:57.939Z,28.77
2024-02-27T07:10:33.897Z,23.35
2024-02-27T07:13:10.537Z,21.23
2024-02-27T07:15:46.942Z,17.87
2024-02-27T07:18:21.152Z,17.70
2024-02-27T07:20:51.527Z,13.90
2024-02-27T07:23:29.835Z,13.23
2024-02-27T07:26:08.091Z,24.87
2024-02-27T07:28:47.221Z,21.00
2024-02-27T07:31:28.848Z,17.80
2024-02-27T07:34:11.008Z,19.33
2024-02-27T07:36:46.316Z,17.40
2024-02-27T07:39:20.627Z,24.07
2024-02-27T07:41:59.156Z,16.30
2024-02-27T07:44:36.806Z,15.00
2024-02-27T07:47:18.983Z,12.60
2024-02-27T07:49:55.614Z,18.27
2024-02-27T07:52:37.122Z,17.90
2024-02-27T07:55:11.053Z,15.83
2024-02-27T07:57:48.113Z,16.27
2024-02-27T08:00:24.317Z,21.00
2024-02-27T08:02:55.925Z,15.60
2024-02-27T08:05:28.317Z,12.20
2024-02-27T08:08:00.518Z,14.45
2024-02-27T08:10:34.662Z,14.27
2024-02-27T08:13:06.729Z,13.30
2024-02-27T08:18:19.294Z,11.23
2024-02-27T08:20:58.406Z,17.63
2024-02-27T08:23:32.922Z,23.50
2024-02-27T08:26:06.361Z,14.17
2024-02-27T08:31:22.813Z,22.20
2024-02-27T08:34:01.140Z,20.37
2024-02-27T08:36:37.281Z,13.70
2024-02-27T08:39:16.604Z,16.07
2024-02-27T08:41:50.054Z,13.53
2024-02-27T08:44:21.968Z,17.03
2024-02-27T08:47:06.257Z,18.30
2024-02-27T08:49:42.238Z,13.77
2024-02-27T08:52:13.568Z,21.80
2024-02-27T08:54:46.965Z,16.63
2024-02-27T09:00:22.461Z,20.67
2024-02-27T09:03:01.551Z,21.70
2024-02-27T09:05:33.599Z,23.53
2024-02-27T09:08:13.516Z,28.02
2024-02-27T09:10:48.873Z,20.47
2024-02-27T09:13:25.582Z,19.90
2024-02-27T09:15:56.446Z,20.43
2024-02-27T09:21:16.514Z,19.67
2024-02-27T09:23:50.802Z,17.17
2024-02-27T09:26:21.817Z,18.70
2024-02-27T09:28:54.495Z,19.10
2024-02-27T09:31:32.864Z,22.07
2024-02-27T09:34:07.723Z,20.13
2024-02-27T09:36:47.959Z,26.63
2024-02-27T09:39:22.608Z,21.57
2024-02-27T09:42:12.060Z,26.70
2024-02-27T09:44:43.577Z,25.40
2024-02-27T09:47:19.941Z,28.88
2024-02-27T09:50:02.221Z,25.43
2024-02-27T09:52:40.361Z,27.90
2024-02-27T09:55:26.612Z,22.33
2024-02-27T09:58:01.596Z,22.13
2024-02-27T10:00:49.273Z,23.90
2024-02-27T10:03:21.082Z,19.10
2024-02-27T10:05:55.207Z,23.87
2024-02-27T10:08:27.831Z,17.20
2024-02-27T10:11:09.245Z,19.30
2024-02-27T10:13:38.707Z,20.43
2024-02-27T10:16:15.652Z,23.27
2024-02-27T10:18:47.533Z,23.67
2024-02-27T10:21:24.850Z,18.87
2024-02-27T10:24:00.254Z,18.30
2024-02-27T10:26:37.225Z,24.73
2024-02-27T10:29:09.469Z,19.63
2024-02-27T10:31:48.708Z,33.40
2024-02-27T10:34:26.361Z,28.20
2024-02-27T10:37:09.445Z,24.17
2024-02-27T10:39:42.663Z,24.37
2024-02-27T10:42:16.028Z,19.57
2024-02-27T10:44:55.179Z,22.03
2024-02-27T10:47:30.751Z,25.10
2024-02-27T10:50:08.280Z,39.13
2024-02-27T10:52:51.897Z,26.93
2024-02-27T10:55:31.058Z,26.67
2024-02-27T10:58:10.327Z,24.50
2024-02-27T11:00:45.391Z,23.10
2024-02-27T11:03:23.098Z,20.97
2024-02-27T11:05:59.452Z,25.87
2024-02-27T11:08:38.537Z,27.17
2024-02-27T11:11:18.122Z,28.73
2024-02-27T11:14:00.337Z,31.37
2024-02-27T11:16:38.397Z,23.17
2024-02-27T11:19:26.996Z,20.60
2024-02-27T11:22:09.003Z,23.40
2024-02-27T11:24:44.361Z,24.77
2024-02-27T11:27:35.925Z,22.57
2024-02-27T11:30:14.172Z,23.70
2024-02-27T11:32:44.284Z,19.67
2024-02-27T11:35:20.249Z,19.90
2024-02-27T11:37:51.694Z,24.27
2024-02-27T11:40:56.393Z,23.50
2024-02-27T11:43:34.973Z,18.83
2024-02-27T11:46:40.034Z,18.93
2024-02-27T11:49:15.003Z,24.97
2024-02-27T11:51:49.024Z,15.47
2024-02-27T11:54:38.260Z,20.83
2024-02-27T11:57:19.383Z,16.73
2024-02-27T11:59:52.822Z,12.52
2024-02-27T12:02:28.249Z,17.03
2024-02-27T12:05:08.942Z,16.17
2024-02-27T12:07:43.576Z,14.57
2024-02-27T12:10:17.524Z,17.63
2024-02-27T12:13:01.471Z,16.43
2024-02-27T12:15:32.022Z,15.17
2024-02-27T12:18:04.616Z,21.45
2024-02-27T12:20:38.730Z,18.73
2024-02-27T12:23:18.188Z,21.50
2024-02-27T12:25:56.127Z,19.27
2024-02-27T12:28:40.715Z,16.53
2024-02-27T12:31:20.934Z,12.17
2024-02-27T12:33:56.585Z,16.60
2024-02-27T12:36:35.769Z,14.57
2024-02-27T12:39:08.071Z,15.77
2024-02-27T12:41:47.373Z,19.03
2024-02-27T12:44:25.091Z,14.80
2024-02-27T12:47:12.293Z,18.27
2024-02-27T12:49:52.518Z,13.57
2024-02-27T12:52:23.441Z,16.90
2024-02-27T12:55:02.710Z,14.60
2024-02-27T12:57:38.385Z,12.93
2024-02-27T13:00:22.421Z,16.23
2024-02-27T13:02:57.684Z,14.70
2024-02-27T13:05:30.730Z,18.17
2024-02-27T13:08:03.880Z,15.53
2024-02-27T13:10:47.572Z,14.20
2024-02-27T13:13:25.867Z,13.57
2024-02-27T13:16:24.327Z,17.63
2024-02-27T13:18:59.563Z,12.77
2024-02-27T13:21:36.140Z,14.90
2024-02-27T13:24:16.514Z,17.77
2024-02-27T13:26:55.632Z,16.92
2024-02-27T13:29:33.774Z,15.67
2024-02-27T13:32:03.784Z,12.90
2024-02-27T13:34:44.803Z,14.67
2024-02-27T13:37:20.505Z,11.10
2024-02-27T13:40:05.176Z,14.07
2024-02-27T13:42:41.388Z,14.93
2024-02-27T13:45:16.514Z,13.60
2024-02-27T13:47:48.692Z,10.90
2024-02-27T13:50:27.524Z,11.33
2024-02-27T13:52:59.937Z,17.77
2024-02-27T13:55:40.922Z,11.87
2024-02-27T14:00:49.056Z,17.13
2024-02-27T14:03:26.067Z,15.00
2024-02-27T14:05:56.499Z,12.77
2024-02-27T14:08:28.951Z,16.10
2024-02-27T14:11:12.909Z,12.97
2024-02-27T14:13:47.999Z,13.97
2024-02-27T14:16:21.870Z,14.40
2024-02-27T14:18:54.379Z,13.43
2024-02-27T14:21:25.863Z,17.33
2024-02-27T14:24:17.613Z,14.40
2024-02-27T14:26:52.301Z,15.43
2024-02-27T14:29:21.860Z,13.67
2024-02-27T14:31:51.110Z,13.27
2024-02-27T14:34:36.272Z,13.47
2024-02-27T14:37:10.697Z,10.77
2024-02-27T14:39:41.100Z,11.17
2024-02-27T14:42:13.537Z,11.97
2024-02-27T14:44:47.187Z,13.87
2024-02-27T14:47:26.741Z,16.03
2024-02-27T14:50:14.066Z,14.90
2024-02-27T14:52:58.328Z,12.90
2024-02-27T14:55:44.525Z,16.20
2024-02-27T14:58:19.871Z,13.30
2024-02-27T15:00:54.886Z,13.77
2024-02-27T15:03:30.937Z,15.23
2024-02-27T15:06:04.630Z,14.73
2024-02-27T15:11:25.712Z,15.90
2024-02-27T15:14:13.218Z,12.57
2024-02-27T15:16:45.916Z,12.57
2024-02-27T15:19:21.638Z,13.00
2024-02-27T15:22:00.437Z,15.63
2024-02-27T15:24:32.367Z,19.00
2024-02-27T15:29:53.882Z,16.60
2024-02-27T15:32:28.160Z,14.17
2024-02-27T15:37:56.542Z,15.67
2024-02-27T15:40:32.155Z,19.50
2024-02-27T15:43:18.134Z,27.73
2024-02-27T15:46:09.308Z,18.77
2024-02-27T15:48:55.278Z,62.63
2024-02-27T15:54:24.234Z,21.17
2024-02-27T15:57:01.515Z,20.33
2024-02-27T15:59:39.977Z,21.20
2024-02-27T16:02:19.438Z,22.30
2024-02-27T16:05:00.723Z,14.47
2024-02-27T16:07:43.222Z,17.80
2024-02-27T16:10:12.365Z,23.17
2024-02-27T16:12:41.584Z,18.83
2024-02-27T16:15:12.813Z,20.30
2024-02-27T16:17:48.514Z,19.60
2024-02-27T16:20:25.725Z,19.50
2024-02-27T16:23:02.093Z,19.83
2024-02-27T16:25:37.786Z,18.63
2024-02-27T16:30:51.533Z,19.20
2024-02-27T16:33:27.153Z,25.23
2024-02-27T16:36:05.351Z,25.30
2024-02-27T16:38:48.161Z,18.27
2024-02-27T16:44:00.734Z,17.93
2024-02-27T16:46:35.741Z,15.27
2024-02-27T16:49:08.147Z,18.10
2024-02-27T16:51:49.815Z,15.73
2024-02-27T16:54:23.019Z,17.35
2024-02-27T16:56:56.588Z,15.77
2024-02-27T16:59:32.675Z,16.37
2024-02-27T17:02:06.037Z,19.77
2024-02-27T17:04:49.331Z,24.97
2024-02-27T17:07:28.538Z,16.97
2024-02-27T17:10:08.471Z,15.33
2024-02-27T17:12:43.761Z,19.80
2024-02-27T17:15:15.456Z,19.20
2024-02-27T17:17:49.164Z,18.52
2024-02-27T17:20:22.315Z,17.67
2024-02-27T17:22:57.783Z,20.40
2024-02-27T17:25:31.760Z,22.40
2024-02-27T17:28:04.009Z,27.53
2024-02-27T17:30:32.732Z,89.67
2024-02-27T17:33:02.944Z,106.67
2024-02-27T17:35:36.269Z,49.07
2024-02-27T17:38:10.162Z,25.97
2024-02-27T17:40:50.067Z,21.73
2024-02-27T17:43:32.245Z,29.00
2024-02-27T17:49:05.063Z,21.10
2024-02-27T17:51:48.765Z,69.37
2024-02-27T17:57:03.971Z,52.30
2024-02-27T17:59:40.075Z,44.20
2024-02-27T18:02:11.495Z,43.90
2024-02-27T18:07:26.510Z,60.33
2024-02-27T18:09:57.968Z,54.27
2024-02-27T18:12:43.209Z,55.97
2024-02-27T18:15:17.150Z,38.63
2024-02-27T18:20:47.809Z,31.47
2024-02-27T18:23:27.056Z,24.67
2024-02-27T18:25:59.770Z,22.90
2024-02-27T18:28:34.561Z,23.03
2024-02-27T18:31:21.927Z,25.30
2024-02-27T18:33:54.569Z,18.93
2024-02-27T18:36:30.803Z,17.73
2024-02-27T18:39:15.580Z,20.67
2024-02-27T18:41:51.922Z,19.53
2024-02-27T18:44:20.223Z,23.43
2024-02-27T18:46:48.568Z,26.17
2024-02-27T18:49:23.694Z,29.60
2024-02-27T18:51:56.418Z,28.53
2024-02-27T18:56:59.908Z,19.95
2024-02-27T18:59:30.334Z,22.15
2024-02-27T19:02:09.365Z,18.83
2024-02-27T19:04:44.796Z,20.13
2024-02-27T19:07:22.720Z,21.17
2024-02-27T19:09:56.615Z,23.73
2024-02-27T19:12:33.995Z,44.43
2024-02-27T19:15:09.661Z,41.70
2024-02-27T19:17:46.256Z,37.67
2024-02-27T19:20:19.344Z,73.87
2024-02-27T19:22:48.677Z,72.22
2024-02-27T19:25:22.984Z,65.07
2024-02-27T19:27:52.632Z,29.77
2024-02-27T19:30:25.626Z,34.50
2024-02-27T19:32:59.820Z,41.87
2024-02-27T19:35:38.738Z,23.03
2024-02-27T19:38:18.784Z,20.57
2024-02-27T19:40:55.496Z,23.53
2024-02-27T19:43:32.882Z,20.30
2024-02-27T19:46:11.815Z,23.83
2024-02-27T19:48:50.492Z,22.90
2024-02-27T19:51:23.519Z,19.53
2024-02-27T19:54:00.604Z,21.93
2024-02-27T19:56:42.150Z,19.93
2024-02-27T19:59:19.385Z,21.38
2024-02-27T20:02:07.532Z,25.27
2024-02-27T20:04:46.157Z,29.27
2024-02-27T20:07:18.067Z,30.23
2024-02-27T20:10:00.202Z,35.33
2024-02-27T20:12:52.865Z,28.00
2024-02-27T20:15:28.097Z,34.43
2024-02-27T20:18:01.415Z,29.23
2024-02-27T20:20:43.140Z,31.93
2024-02-27T20:23:15.120Z,32.83
2024-02-27T20:25:52.547Z,26.67
2024-02-27T20:28:22.036Z,26.83
2024-02-27T20:30:57.207Z,20.85
2024-02-27T20:33:31.517Z,27.10
2024-02-27T20:36:03.658Z,28.57
2024-02-27T20:38:40.689Z,34.33
2024-02-27T20:41:18.869Z,26.07
2024-02-27T20:43:56.862Z,24.93
2024-02-27T20:46:28.507Z,36.20
2024-02-27T20:49:07.472Z,27.43
2024-02-27T20:51:38.225Z,29.50
2024-02-27T20:54:13.268Z,30.07
2024-02-27T20:56:46.268Z,28.53
2024-02-27T20:59:19.596Z,24.87
2024-02-27T21:01:49.241Z,31.20
2024-02-27T21:04:25.668Z,38.87
2024-02-27T21:09:37.963Z,30.17
2024-02-27T21:12:19.814Z,37.73
2024-02-27T21:14:59.007Z,31.30
2024-02-27T21:20:21.511Z,25.47
2024-02-27T21:22:55.501Z,31.80
2024-02-27T21:25:27.956Z,28.70
2024-02-27T21:28:10.001Z,32.23
2024-02-27T21:33:20.689Z,54.33
2024-02-27T21:35:56.428Z,43.70
2024-02-27T21:38:44.959Z,40.53
2024-02-27T21:41:19.780Z,38.63
2024-02-27T21:43:56.979Z,28.53
2024-02-27T21:46:36.380Z,32.27
2024-02-27T21:49:08.350Z,31.33
2024-02-27T21:54:20.049Z,38.03
2024-02-27T21:56:56.467Z,33.70
2024-02-27T21:59:28.645Z,26.37
2024-02-27T22:02:04.185Z,30.97
2024-02-27T22:04:46.113Z,31.73
2024-02-27T22:07:25.429Z,29.40
2024-02-27T22:10:06.740Z,27.27
2024-02-27T22:12:49.575Z,20.43
2024-02-27T22:15:24.502Z,28.43
2024-02-27T22:18:06.540Z,33.43
2024-02-27T22:20:46.077Z,32.53
2024-02-27T22:23:19.026Z,24.63
2024-02-27T22:25:52.998Z,37.77
2024-02-27T22:28:25.167Z,37.50
2024-02-27T22:30:55.905Z,26.57
2024-02-27T22:33:31.141Z,23.27
2024-02-27T22:36:06.522Z,24.93
2024-02-27T22:38:40.025Z,25.47
2024-02-27T22:41:22.873Z,29.27
2024-02-27T22:43:54.159Z,20.27
2024-02-27T22:46:26.960Z,19.30
2024-02-27T22:49:06.574Z,18.42
2024-02-27T22:51:49.281Z,18.97
2024-02-27T22:54:25.833Z,19.40
2024-02-27T22:57:10.376Z,19.10
2024-02-27T22:59:44.644Z,23.77
2024-02-27T23:02:22.869Z,15.53
2024-02-27T23:04:51.201Z,28.80
2024-02-27T23:07:35.279Z,36.70
2024-02-27T23:10:09.593Z,31.25
2024-02-27T23:12:41.671Z,34.20
2024-02-27T23:15:14.999Z,26.57
2024-02-27T23:18:00.307Z,39.13
2024-02-27T23:20:30.584Z,35.17
2024-02-27T23:23:01.761Z,40.50
2024-02-27T23:25:32.304Z,36.53
2024-02-27T23:28:06.585Z,33.20
2024-02-27T23:30:39.176Z,27.20
2024-02-27T23:33:10.172Z,19.42
2024-02-27T23:35:47.349Z,16.98
2024-02-27T23:38:25.556Z,22.97
2024-02-27T23:41:05.491Z,39.50
2024-02-27T23:43:38.498Z,41.33
2024-02-27T23:46:13.855Z,46.27
2024-02-27T23:49:04.722Z,32.07
2024-02-27T23:51:45.215Z,32.30
2024-02-27T23:54:21.520Z,32.00
2024-02-27T23:57:00.751Z,33.67
2024-02-27T23:59:37.622Z,33.57
